Time;durP1;ratioP1;P1;durP2;ratioP2;P2;SDS_P1;SDS_P2;PMS_P1;PMS_P2;Temp;Humidity;BMP_temperature;BMP_pressure;BME280_temperature;BME280_humidity;BME280_pressure;Samples;Min_cycle;Max_cycle;Signal;HPM_P1;HPM_P2
2023/08/08 00:01:52;;;;;;;;;;;;;;;15.10;66.17;100494.94;4203131;28;20022;-70
2023/08/08 00:03:54;;;;;;;;;;;;;;;15.08;66.67;100507.09;4203061;28;20034;-71
2023/08/08 00:05:56;;;;;;;;;;;;;;;15.06;66.88;100501.03;4184481;28;19936;-71
2023/08/08 00:07:58;;;;;;;;;;;;;;;15.07;67.05;100506.25;4202304;28;20449;-70
2023/08/08 00:10:00;;;;;;;;;;;;;;;15.05;66.56;100505.63;4202881;28;20015;-71
2023/08/08 00:12:02;;;;;;;;;;;;;;;15.02;66.96;100495.19;4202276;28;20043;-70
2023/08/08 00:14:07;;;;;;;;;;;;;;;15.00;66.77;100499.16;4184397;28;20007;-71
2023/08/08 00:16:09;;;;;;;;;;;;;;;14.97;67.21;100497.72;4202017;28;19932;-71
2023/08/08 00:18:11;;;;;;;;;;;;;;;14.95;67.06;100489.75;4202136;28;20023;-71
2023/08/08 00:20:13;;;;;;;;;;;;;;;14.97;67.12;100505.88;4202977;28;20023;-72
2023/08/08 00:22:15;;;;;;;;;;;;;;;14.96;67.12;100501.47;4201766;28;20015;-71
2023/08/08 00:24:17;;;;;;;;;;;;;;;14.90;66.97;100496.88;4184407;28;20422;-71
2023/08/08 00:26:18;;;;;;;;;;;;;;;14.86;67.43;100496.47;4203313;28;20454;-71
2023/08/08 00:28:20;;;;;;;;;;;;;;;14.83;67.13;100490.59;4206326;28;20027;-71
2023/08/08 00:30:24;;;;;;;;;;;;;;;14.77;67.51;100501.28;4205834;28;20035;-71
2023/08/08 00:32:26;;;;;;;;;;;;;;;14.74;67.69;100498.16;4204129;28;20373;-71
2023/08/08 00:34:28;;;;;;;;;;;;;;;14.73;67.66;100508.19;4186191;28;20606;-70
2023/08/08 00:36:30;;;;;;;;;;;;;;;14.70;67.52;100503.19;4205129;28;19932;-71
2023/08/08 00:38:32;;;;;;;;;;;;;;;14.71;67.95;100501.28;4205424;28;20031;-71
2023/08/08 00:40:34;;;;;;;;;;;;;;;14.68;67.72;100507.97;4187378;28;20015;-71
2023/08/08 00:42:35;;;;;;;;;;;;;;;14.66;67.51;100510.06;4205723;28;20011;-71
2023/08/08 00:44:40;;;;;;;;;;;;;;;14.64;67.59;100504.00;4205198;28;20023;-71
2023/08/08 00:46:43;;;;;;;;;;;;;;;14.62;67.61;100506.09;4205013;28;20082;-71
2023/08/08 00:48:48;;;;;;;;;;;;;;;14.58;67.87;100502.94;4205596;28;20369;-71
2023/08/08 00:50:51;;;;;;;;;;;;;;;14.57;68.02;100512.13;4205220;28;20015;-71
2023/08/08 00:52:53;;;;;;;;;;;;;;;14.56;68.05;100505.03;4187107;28;20024;-71
2023/08/08 00:54:54;;;;;;;;;;;;;;;14.55;68.17;100510.66;4171260;28;20016;-70
2023/08/08 00:56:57;;;;;;;;;;;;;;;14.55;68.21;100516.09;4205061;28;19979;-70
2023/08/08 00:58:59;;;;;;;;;;;;;;;14.55;68.19;100527.81;4205763;28;20011;-71
2023/08/08 01:01:00;;;;;;;;;;;;;;;14.55;68.06;100516.09;4170155;28;20020;-71
2023/08/08 01:03:04;;;;;;;;;;;;;;;14.52;68.07;100522.78;4204721;28;20032;-71
2023/08/08 01:05:07;;;;;;;;;;;;;;;14.49;67.83;100512.34;4204331;28;20007;-71
2023/08/08 01:07:10;;;;;;;;;;;;;;;14.48;68.03;100523.41;4204836;28;20023;-71
2023/08/08 01:09:15;;;;;;;;;;;;;;;14.45;67.90;100526.53;4186752;28;19978;-71
2023/08/08 01:11:17;;;;;;;;;;;;;;;14.42;67.89;100516.94;4205805;28;20464;-70
2023/08/08 01:13:21;;;;;;;;;;;;;;;14.40;67.89;100516.28;4204971;28;20489;-71
2023/08/08 01:15:23;;;;;;;;;;;;;;;14.40;68.33;100517.16;4165737;28;20012;-71
2023/08/08 01:17:25;;;;;;;;;;;;;;;14.36;68.09;100518.59;4187676;28;19984;-71
2023/08/08 01:19:29;;;;;;;;;;;;;;;14.34;68.38;100526.13;4187425;28;20051;-71
2023/08/08 01:21:31;;;;;;;;;;;;;;;14.32;68.14;100532.81;4205170;28;20146;-71
2023/08/08 01:23:34;;;;;;;;;;;;;;;14.29;68.10;100525.88;4204606;28;20054;-71
2023/08/08 01:25:37;;;;;;;;;;;;;;;14.28;68.35;100523.38;4204715;28;20027;-70
2023/08/08 01:27:39;;;;;;;;;;;;;;;14.23;68.40;100527.56;4205021;28;20466;-71
2023/08/08 01:29:42;;;;;;;;;;;;;;;14.21;68.39;100521.50;4169537;28;19983;-71
2023/08/08 01:31:44;;;;;;;;;;;;;;;14.22;68.50;100523.16;4205125;28;20040;-71
2023/08/08 01:33:46;;;;;;;;;;;;;;;14.21;68.36;100523.38;4187097;28;20011;-71
2023/08/08 01:35:48;;;;;;;;;;;;;;;14.20;68.37;100524.41;4203982;28;20014;-71
2023/08/08 01:37:51;;;;;;;;;;;;;;;14.18;68.05;100521.06;4187547;28;20469;-70
2023/08/08 01:39:53;;;;;;;;;;;;;;;14.17;68.30;100522.97;4205050;28;20015;-71
2023/08/08 01:41:57;;;;;;;;;;;;;;;14.13;67.88;100513.53;4204381;28;20057;-71
2023/08/08 01:43:58;;;;;;;;;;;;;;;14.11;68.20;100523.78;4169413;28;20023;-71
2023/08/08 01:46:00;;;;;;;;;;;;;;;14.10;68.22;100524.00;4186037;28;20019;-71
2023/08/08 01:48:06;;;;;;;;;;;;;;;14.07;68.33;100514.38;4186123;28;20055;-71
2023/08/08 01:50:09;;;;;;;;;;;;;;;14.07;68.09;100517.06;4205099;28;20825;-71
2023/08/08 01:52:10;;;;;;;;;;;;;;;14.05;67.86;100516.47;4204656;28;20019;-70
2023/08/08 01:54:12;;;;;;;;;;;;;;;14.01;67.74;100518.75;4204239;28;20023;-70
2023/08/08 01:56:14;;;;;;;;;;;;;;;13.96;68.02;100512.25;4205184;28;20437;-70
2023/08/08 01:58:17;;;;;;;;;;;;;;;13.94;68.01;100517.06;4204996;28;19924;-71
2023/08/08 02:00:19;;;;;;;;;;;;;;;13.92;67.86;100514.56;4186203;28;20011;-71
2023/08/08 02:02:21;;;;;;;;;;;;;;;13.91;67.91;100509.31;4205219;28;20027;-71
2023/08/08 02:04:23;;;;;;;;;;;;;;;13.89;67.93;100501.38;4170646;28;20016;-71
2023/08/08 02:06:25;;;;;;;;;;;;;;;13.90;67.91;100502.22;4204065;28;20007;-71
2023/08/08 02:08:27;;;;;;;;;;;;;;;13.90;67.80;100510.34;4186369;28;20043;-70
2023/08/08 02:10:29;;;;;;;;;;;;;;;13.86;67.44;100502.63;4204237;28;20028;-71
2023/08/08 02:12:31;;;;;;;;;;;;;;;13.85;68.04;100500.94;4186930;28;20032;-71
2023/08/08 02:14:35;;;;;;;;;;;;;;;13.85;67.74;100500.09;4202006;28;20015;-71
2023/08/08 02:16:39;;;;;;;;;;;;;;;13.83;67.88;100485.91;4202822;28;20024;-71
2023/08/08 02:18:41;;;;;;;;;;;;;;;13.80;67.54;100483.59;4201990;28;19928;-70
2023/08/08 02:20:43;;;;;;;;;;;;;;;13.79;68.03;100480.06;4185572;28;20028;-71
2023/08/08 02:22:45;;;;;;;;;;;;;;;13.78;67.88;100483.00;4202509;28;20590;-71
2023/08/08 02:24:46;;;;;;;;;;;;;;;13.80;68.33;100484.44;4186430;28;20047;-71
2023/08/08 02:26:49;;;;;;;;;;;;;;;13.80;68.01;100478.19;4186408;28;20016;-71
2023/08/08 02:28:51;;;;;;;;;;;;;;;13.80;67.76;100489.88;4186277;28;19963;-71
2023/08/08 02:30:55;;;;;;;;;;;;;;;13.81;67.93;100488.00;4201716;28;20007;-71
2023/08/08 02:32:56;;;;;;;;;;;;;;;13.79;67.88;100490.06;4202771;28;20027;-71
2023/08/08 02:34:58;;;;;;;;;;;;;;;13.78;68.17;100493.84;4203742;28;19928;-71
2023/08/08 02:37:00;;;;;;;;;;;;;;;13.75;68.10;100484.22;4170243;28;20028;-70
2023/08/08 02:39:03;;;;;;;;;;;;;;;13.73;67.93;100485.44;4204213;28;20019;-71
2023/08/08 02:41:05;;;;;;;;;;;;;;;13.70;68.02;100492.16;4169857;28;20028;-71
2023/08/08 02:43:09;;;;;;;;;;;;;;;13.70;68.26;100492.16;4186289;28;20363;-71
2023/08/08 02:45:11;;;;;;;;;;;;;;;13.70;68.37;100481.28;4185840;28;20020;-71
2023/08/08 02:47:15;;;;;;;;;;;;;;;13.70;68.52;100487.53;4185619;28;20441;-71
2023/08/08 02:49:17;;;;;;;;;;;;;;;13.70;68.81;100487.53;4187216;28;20024;-71
2023/08/08 02:51:18;;;;;;;;;;;;;;;13.74;68.46;100481.72;4199835;28;20019;-70
2023/08/08 02:53:21;;;;;;;;;;;;;;;13.72;68.54;100483.81;4181778;28;19924;-70
2023/08/08 02:55:23;;;;;;;;;;;;;;;13.70;68.99;100484.84;4201141;28;20022;-71
2023/08/08 02:57:27;;;;;;;;;;;;;;;13.69;69.04;100485.03;4186090;28;20023;-71
2023/08/08 02:59:31;;;;;;;;;;;;;;;13.72;69.29;100486.50;4185425;28;19936;-71
2023/08/08 03:01:39;;;;;;;;;;;;;;;13.70;69.08;100492.97;4186169;28;20007;-71
2023/08/08 03:03:46;;;;;;;;;;;;;;;13.68;69.49;100492.34;4185419;28;20023;-71
2023/08/08 03:05:49;;;;;;;;;;;;;;;13.66;69.69;100494.41;4202627;28;20020;-71
2023/08/08 03:07:53;;;;;;;;;;;;;;;13.66;69.78;100488.16;4201425;28;20015;-71
2023/08/08 03:09:55;;;;;;;;;;;;;;;13.66;69.88;100488.16;4203413;28;20014;-71
2023/08/08 03:11:58;;;;;;;;;;;;;;;13.65;70.02;100481.03;4204083;28;20015;-71
2023/08/08 03:13:59;;;;;;;;;;;;;;;13.65;70.08;100481.91;4169478;28;19929;-71
2023/08/08 03:16:01;;;;;;;;;;;;;;;13.63;70.09;100492.09;4202374;28;20023;-71
2023/08/08 03:18:04;;;;;;;;;;;;;;;13.64;70.26;100480.22;4184906;28;20027;-70
2023/08/08 03:20:10;;;;;;;;;;;;;;;13.63;70.43;100483.13;4168951;28;19936;-70
2023/08/08 03:22:12;;;;;;;;;;;;;;;13.59;70.59;100490.00;4169992;28;20772;-71
2023/08/08 03:24:14;;;;;;;;;;;;;;;13.59;70.48;100490.00;4184323;28;20019;-71
2023/08/08 03:26:16;;;;;;;;;;;;;;;13.58;70.69;100482.91;4185323;28;20027;-71
2023/08/08 03:28:19;;;;;;;;;;;;;;;13.60;71.05;100488.97;4169131;28;20028;-71
2023/08/08 03:30:21;;;;;;;;;;;;;;;13.60;70.93;100486.25;4185186;28;20936;-70
2023/08/08 03:32:23;;;;;;;;;;;;;;;13.60;70.81;100487.06;4200563;28;20020;-71
2023/08/08 03:34:26;;;;;;;;;;;;;;;13.59;71.17;100487.28;4201603;28;20011;-71
2023/08/08 03:36:30;;;;;;;;;;;;;;;13.57;71.32;100489.38;4201659;28;20099;-71
2023/08/08 03:38:34;;;;;;;;;;;;;;;13.56;71.44;100488.53;4201453;28;20043;-71
2023/08/08 03:40:36;;;;;;;;;;;;;;;13.55;71.37;100488.75;4184558;28;19924;-71
2023/08/08 03:42:38;;;;;;;;;;;;;;;13.52;71.45;100496.22;4203192;28;20035;-71
2023/08/08 03:44:40;;;;;;;;;;;;;;;13.50;72.01;100494.78;4184564;28;20026;-71
2023/08/08 03:46:42;;;;;;;;;;;;;;;13.49;72.01;100483.09;4203139;28;20015;-71
2023/08/08 03:48:44;;;;;;;;;;;;;;;13.46;71.98;100485.34;4184216;28;20012;-70
2023/08/08 03:50:46;;;;;;;;;;;;;;;13.43;72.51;100488.47;4185373;28;20015;-71
2023/08/08 03:52:50;;;;;;;;;;;;;;;13.42;72.29;100492.25;4203291;28;20531;-70
2023/08/08 03:54:52;;;;;;;;;;;;;;;13.44;72.28;100498.28;4201774;28;20023;-71
2023/08/08 03:56:54;;;;;;;;;;;;;;;13.43;72.45;100488.47;4184780;28;20011;-71
2023/08/08 03:58:58;;;;;;;;;;;;;;;13.41;72.90;100493.28;4184804;28;20025;-70
2023/08/08 04:01:00;;;;;;;;;;;;;;;13.39;72.87;100500.78;4169396;28;19975;-71
2023/08/08 04:03:02;;;;;;;;;;;;;;;13.37;72.97;100495.56;4187946;28;19967;-71
2023/08/08 04:05:05;;;;;;;;;;;;;;;13.39;73.05;100492.66;4170975;28;20027;-71
2023/08/08 04:07:07;;;;;;;;;;;;;;;13.38;73.10;100496.38;4187338;28;20394;-71
2023/08/08 04:09:11;;;;;;;;;;;;;;;13.38;73.58;100493.69;4206226;28;20023;-71
2023/08/08 04:11:13;;;;;;;;;;;;;;;13.36;73.75;100484.91;4205834;28;20020;-71
2023/08/08 04:13:15;;;;;;;;;;;;;;;13.34;74.06;100493.25;4205801;28;20014;-71
2023/08/08 04:15:17;;;;;;;;;;;;;;;13.32;74.12;100492.56;4188912;28;20027;-70
2023/08/08 04:17:19;;;;;;;;;;;;;;;13.31;74.45;100505.28;4188151;28;20016;-70
2023/08/08 04:19:21;;;;;;;;;;;;;;;13.30;74.28;100498.19;4205753;28;20015;-71
2023/08/08 04:21:25;;;;;;;;;;;;;;;13.32;74.52;100500.69;4205434;28;19931;-71
2023/08/08 04:23:27;;;;;;;;;;;;;;;13.32;74.36;100498.84;4206230;28;20010;-71
2023/08/08 04:25:30;;;;;;;;;;;;;;;13.36;74.44;100491.16;4205411;28;20011;-71
2023/08/08 04:27:31;;;;;;;;;;;;;;;13.40;74.40;100513.28;4206439;28;20500;-71
2023/08/08 04:29:33;;;;;;;;;;;;;;;13.42;74.20;100492.25;4205728;28;19932;-71
2023/08/08 04:31:36;;;;;;;;;;;;;;;13.43;74.33;100486.63;4205906;28;19963;-71
2023/08/08 04:33:38;;;;;;;;;;;;;;;13.43;74.62;100489.34;4205890;28;20134;-71
2023/08/08 04:35:40;;;;;;;;;;;;;;;13.43;74.16;100486.63;4203266;28;20019;-71
2023/08/08 04:37:43;;;;;;;;;;;;;;;13.45;74.59;100484.53;4205507;28;20490;-71
2023/08/08 04:39:45;;;;;;;;;;;;;;;13.46;74.54;100480.78;4203839;28;20032;-71
2023/08/08 04:41:48;;;;;;;;;;;;;;;13.47;74.57;100484.34;4187702;28;20489;-70
2023/08/08 04:43:50;;;;;;;;;;;;;;;13.47;74.61;100487.88;4205472;28;20039;-71
2023/08/08 04:45:52;;;;;;;;;;;;;;;13.48;74.48;100486.00;4205250;28;20031;-71
2023/08/08 04:47:54;;;;;;;;;;;;;;;13.50;74.66;100489.34;4205348;28;20032;-71
2023/08/08 04:49:56;;;;;;;;;;;;;;;13.52;74.42;100488.09;4205667;28;20458;-71
2023/08/08 04:51:58;;;;;;;;;;;;;;;13.53;74.79;100483.53;4205958;28;20015;-71
2023/08/08 04:53:59;;;;;;;;;;;;;;;13.55;74.52;100486.84;4205983;28;20050;-70
2023/08/08 04:56:01;;;;;;;;;;;;;;;13.57;74.65;100486.66;4170748;28;20902;-70
2023/08/08 04:58:05;;;;;;;;;;;;;;;13.59;74.27;100490.00;4205934;28;20070;-71
2023/08/08 05:00:08;;;;;;;;;;;;;;;13.60;74.20;100483.53;4204969;28;20012;-71
2023/08/08 05:02:10;;;;;;;;;;;;;;;13.62;74.32;100484.16;4206101;28;20096;-71
2023/08/08 05:04:12;;;;;;;;;;;;;;;13.64;74.38;100507.34;4205894;28;20006;-71
2023/08/08 05:06:14;;;;;;;;;;;;;;;13.66;74.57;100491.69;4205265;28;20026;-71
2023/08/08 05:08:16;;;;;;;;;;;;;;;13.65;74.72;100484.63;4203477;28;20019;-71
2023/08/08 05:10:18;;;;;;;;;;;;;;;13.67;74.50;100485.25;4204455;28;20032;-71
2023/08/08 05:12:20;;;;;;;;;;;;;;;13.69;74.14;100494.00;4205771;28;20019;-71
2023/08/08 05:14:23;;;;;;;;;;;;;;;13.69;74.29;100499.44;4205896;28;20019;-71
2023/08/08 05:16:25;;;;;;;;;;;;;;;13.70;74.58;100487.53;4204801;28;20017;-71
2023/08/08 05:18:27;;;;;;;;;;;;;;;13.72;74.26;100486.50;4205139;28;20044;-71
2023/08/08 05:20:29;;;;;;;;;;;;;;;13.74;74.45;100489.84;4205104;28;20473;-71
2023/08/08 05:22:31;;;;;;;;;;;;;;;13.77;74.25;100484.84;4204656;28;19932;-70
2023/08/08 05:24:33;;;;;;;;;;;;;;;13.78;74.00;100481.09;4203518;28;20027;-71
2023/08/08 05:26:36;;;;;;;;;;;;;;;13.83;73.82;100480.50;4205013;28;20039;-71
2023/08/08 05:28:38;;;;;;;;;;;;;;;13.85;74.05;100490.06;4205348;28;20462;-69
2023/08/08 05:30:42;;;;;;;;;;;;;;;13.88;74.21;100480.69;4205053;28;20462;-71
2023/08/08 05:32:44;;;;;;;;;;;;;;;13.90;73.83;100497.59;4205338;28;20019;-71
2023/08/08 05:34:45;;;;;;;;;;;;;;;13.92;74.14;100490.13;4204331;28;20038;-71
2023/08/08 05:36:47;;;;;;;;;;;;;;;13.93;74.22;100483.63;4204582;28;20385;-71
2023/08/08 05:38:49;;;;;;;;;;;;;;;13.94;74.07;100479.88;4203645;28;20022;-71
2023/08/08 05:40:51;;;;;;;;;;;;;;;13.97;73.93;100484.06;4204472;28;20023;-71
2023/08/08 05:42:53;;;;;;;;;;;;;;;13.97;73.84;100481.34;4186841;28;20526;-71
2023/08/08 05:44:55;;;;;;;;;;;;;;;14.00;73.95;100494.53;4203400;28;20619;-71
2023/08/08 05:46:59;;;;;;;;;;;;;;;14.01;74.28;100483.47;4205271;28;20022;-70
2023/08/08 05:49:01;;;;;;;;;;;;;;;14.05;73.87;100481.97;4203616;28;20450;-72
2023/08/08 05:51:04;;;;;;;;;;;;;;;14.08;73.84;100493.50;4204557;28;20454;-71
2023/08/08 05:53:06;;;;;;;;;;;;;;;14.11;73.81;100479.50;4204789;28;20044;-71
2023/08/08 05:55:11;;;;;;;;;;;;;;;14.14;73.91;100484.53;4204181;28;20450;-71
2023/08/08 05:57:13;;;;;;;;;;;;;;;14.18;73.63;100488.47;4204661;28;20014;-71
2023/08/08 05:59:15;;;;;;;;;;;;;;;14.19;73.67;100477.41;4204743;28;20016;-71
2023/08/08 06:01:17;;;;;;;;;;;;;;;14.22;73.52;100489.75;4204208;28;20014;-71
2023/08/08 06:03:20;;;;;;;;;;;;;;;14.23;73.56;100483.25;4201776;28;19936;-71
2023/08/08 06:05:23;;;;;;;;;;;;;;;14.24;73.62;100480.34;4201417;28;20028;-71
2023/08/08 06:07:25;;;;;;;;;;;;;;;14.28;73.28;100485.34;4200810;28;20019;-71
2023/08/08 06:09:27;;;;;;;;;;;;;;;14.31;73.46;100485.78;4202913;28;20048;-72
2023/08/08 06:11:29;;;;;;;;;;;;;;;14.32;73.71;100479.28;4202007;28;20023;-71
2023/08/08 06:13:30;;;;;;;;;;;;;;;14.35;73.27;100484.31;4203597;28;20467;-71
2023/08/08 06:15:32;;;;;;;;;;;;;;;14.39;73.18;100498.34;4204576;28;19971;-71
2023/08/08 06:17:34;;;;;;;;;;;;;;;14.38;73.17;100489.34;4201805;28;20022;-72
2023/08/08 06:19:38;;;;;;;;;;;;;;;14.41;73.15;100488.09;4202513;28;20026;-71
2023/08/08 06:21:40;;;;;;;;;;;;;;;14.44;72.90;100484.97;4203206;28;20024;-71
2023/08/08 06:23:42;;;;;;;;;;;;;;;14.46;72.88;100493.72;4185633;28;19937;-71
2023/08/08 06:25:44;;;;;;;;;;;;;;;14.47;72.80;100495.41;4203829;28;20019;-71
2023/08/08 06:27:46;;;;;;;;;;;;;;;14.48;72.72;100491.66;4204181;28;20031;-72
2023/08/08 06:29:48;;;;;;;;;;;;;;;14.48;72.85;100491.66;4202642;28;20059;-70
2023/08/08 06:31:50;;;;;;;;;;;;;;;14.49;72.84;100496.03;4204141;28;20376;-71
2023/08/08 06:33:52;;;;;;;;;;;;;;;14.50;73.06;100499.56;4204360;28;20039;-72
2023/08/08 06:35:56;;;;;;;;;;;;;;;14.52;72.94;100506.47;4203308;28;20043;-71
2023/08/08 06:37:58;;;;;;;;;;;;;;;14.54;73.12;100492.69;4203619;28;20015;-71
2023/08/08 06:40:01;;;;;;;;;;;;;;;14.55;72.74;100495.19;4204008;28;20010;-71
2023/08/08 06:42:03;;;;;;;;;;;;;;;14.54;72.97;100498.94;4203899;28;20019;-71
2023/08/08 06:44:13;;;;;;;;;;;;;;;14.54;73.15;100487.25;4184705;28;19951;-72
2023/08/08 06:46:15;;;;;;;;;;;;;;;14.55;72.98;100491.66;4203860;28;20019;-71
2023/08/08 06:48:17;;;;;;;;;;;;;;;14.56;72.92;100496.00;4203823;28;20694;-71
2023/08/08 06:50:20;;;;;;;;;;;;;;;14.57;72.96;100498.53;4202520;28;20015;-71
2023/08/08 06:52:23;;;;;;;;;;;;;;;14.60;73.18;100495.44;4204219;28;20011;-72
2023/08/08 06:54:28;;;;;;;;;;;;;;;14.64;72.75;100493.13;4203355;28;20455;-71
2023/08/08 06:56:30;;;;;;;;;;;;;;;14.68;72.54;100496.28;4203785;28;20015;-72
2023/08/08 06:58:32;;;;;;;;;;;;;;;14.65;72.63;100497.50;4203155;28;20015;-72
2023/08/08 07:00:33;;;;;;;;;;;;;;;14.72;72.44;100482.03;4203953;28;20036;-71
2023/08/08 07:02:35;;;;;;;;;;;;;;;14.72;72.13;100492.91;4203620;28;20035;-71
2023/08/08 07:04:37;;;;;;;;;;;;;;;14.75;72.16;100497.13;4203605;28;19968;-71
2023/08/08 07:06:39;;;;;;;;;;;;;;;14.76;72.08;100507.78;4202388;28;20022;-71
2023/08/08 07:08:44;;;;;;;;;;;;;;;14.78;72.07;100493.97;4203771;28;20024;-71
2023/08/08 07:10:48;;;;;;;;;;;;;;;14.78;71.98;100489.34;4203404;28;20023;-75
2023/08/08 07:12:50;;;;;;;;;;;;;;;14.82;71.92;100494.38;4203503;28;20022;-72
2023/08/08 07:14:52;;;;;;;;;;;;;;;14.84;71.93;100492.28;4203318;28;20023;-72
2023/08/08 07:16:54;;;;;;;;;;;;;;;14.86;71.82;100496.47;4203457;28;20392;-72
2023/08/08 07:18:56;;;;;;;;;;;;;;;14.90;71.85;100483.28;4203095;28;20012;-72
2023/08/08 07:20:57;;;;;;;;;;;;;;;14.95;71.31;100499.78;4203413;28;20489;-72
2023/08/08 07:23:00;;;;;;;;;;;;;;;15.00;71.36;100490.97;4202892;28;19956;-71
2023/08/08 07:25:04;;;;;;;;;;;;;;;15.04;71.22;100503.13;4202494;28;19924;-71
2023/08/08 07:27:06;;;;;;;;;;;;;;;15.09;71.31;100495.16;4203724;28;20032;-72
2023/08/08 07:29:08;;;;;;;;;;;;;;;15.13;70.88;100490.97;4202349;28;20441;-71
2023/08/08 07:31:10;;;;;;;;;;;;;;;15.18;70.83;100498.50;4202755;28;20023;-71
2023/08/08 07:33:13;;;;;;;;;;;;;;;15.22;70.45;100497.84;4203522;28;20028;-71
2023/08/08 07:35:15;;;;;;;;;;;;;;;15.27;70.35;100502.66;4202782;28;20023;-71
2023/08/08 07:37:18;;;;;;;;;;;;;;;15.31;70.28;100493.00;4201862;28;20043;-72
2023/08/08 07:39:20;;;;;;;;;;;;;;;15.35;70.20;100499.69;4202979;28;20031;-71
2023/08/08 07:41:24;;;;;;;;;;;;;;;15.39;70.14;100502.81;4203561;28;20035;-71
2023/08/08 07:43:27;;;;;;;;;;;;;;;15.40;69.74;100508.03;4203199;28;20028;-71
2023/08/08 07:45:29;;;;;;;;;;;;;;;15.43;69.57;100504.88;4201588;28;20442;-72
2023/08/08 07:47:30;;;;;;;;;;;;;;;15.45;69.63;100507.41;4202166;28;20018;-71
2023/08/08 07:49:32;;;;;;;;;;;;;;;15.45;69.72;100497.38;4202439;28;20369;-71
2023/08/08 07:51:33;;;;;;;;;;;;;;;15.47;69.62;100514.31;4203802;28;20023;-71
2023/08/08 07:53:35;;;;;;;;;;;;;;;15.50;69.68;100493.97;4202085;28;19942;-71
2023/08/08 07:55:37;;;;;;;;;;;;;;;15.51;69.35;100495.66;4202961;28;20620;-71
2023/08/08 07:57:40;;;;;;;;;;;;;;;15.53;69.53;100506.31;4203319;28;20028;-71
2023/08/08 07:59:42;;;;;;;;;;;;;;;15.54;69.58;100497.94;4152442;28;20028;-71
2023/08/08 08:01:44;;;;;;;;;;;;;;;15.57;69.29;100502.94;4201792;28;20019;-71
2023/08/08 08:03:46;;;;;;;;;;;;;;;15.59;69.29;100491.84;4202980;28;20023;-71
2023/08/08 08:05:48;;;;;;;;;;;;;;;15.61;69.34;100497.91;4202691;28;20268;-71
2023/08/08 08:07:50;;;;;;;;;;;;;;;15.63;69.09;100493.09;4202932;28;20471;-71
2023/08/08 08:09:51;;;;;;;;;;;;;;;15.66;68.98;100514.44;4202422;28;20019;-72
2023/08/08 08:11:54;;;;;;;;;;;;;;;15.67;68.96;100497.91;4202551;28;20027;-72
2023/08/08 08:13:57;;;;;;;;;;;;;;;15.70;69.04;100501.22;4203286;28;20091;-72
2023/08/08 08:15:59;;;;;;;;;;;;;;;15.72;68.62;100493.66;4202156;28;20028;-71
2023/08/08 08:18:01;;;;;;;;;;;;;;;15.73;68.77;100488.00;4201834;28;20023;-71
2023/08/08 08:20:05;;;;;;;;;;;;;;;15.76;68.70;100506.63;4202376;28;20006;-70
2023/08/08 08:22:07;;;;;;;;;;;;;;;15.77;68.49;100500.19;4203108;28;20030;-72
2023/08/08 08:24:09;;;;;;;;;;;;;;;15.79;68.59;100481.72;4201108;28;20445;-71
2023/08/08 08:26:12;;;;;;;;;;;;;;;15.82;68.36;100489.47;4201580;28;19946;-72
2023/08/08 08:28:14;;;;;;;;;;;;;;;15.83;68.11;100499.31;4203184;28;20015;-71
2023/08/08 08:30:18;;;;;;;;;;;;;;;15.87;67.98;100487.97;4202924;28;20592;-71
2023/08/08 08:32:20;;;;;;;;;;;;;;;15.88;68.32;100495.94;4202421;28;20441;-71
2023/08/08 08:34:22;;;;;;;;;;;;;;;15.91;67.90;100486.47;4202558;28;20024;-73
2023/08/08 08:36:26;;;;;;;;;;;;;;;15.93;67.76;100489.84;4203208;28;20030;-72
2023/08/08 08:38:27;;;;;;;;;;;;;;;15.96;67.67;100505.75;4200874;28;20022;-71
2023/08/08 08:40:29;;;;;;;;;;;;;;;15.98;67.74;100484.56;4201635;28;20037;-71
2023/08/08 08:42:31;;;;;;;;;;;;;;;16.00;67.50;100487.88;4202773;28;20056;-71
2023/08/08 08:44:33;;;;;;;;;;;;;;;16.02;67.60;100491.25;4202992;28;19959;-71
2023/08/08 08:46:37;;;;;;;;;;;;;;;16.05;67.75;100482.63;4184104;28;20433;-71
2023/08/08 08:48:39;;;;;;;;;;;;;;;16.06;67.34;100467.94;4205080;28;20047;-71
2023/08/08 08:50:41;;;;;;;;;;;;;;;16.07;67.57;100475.06;4205793;28;20449;-70
2023/08/08 08:52:43;;;;;;;;;;;;;;;16.09;67.49;100480.31;4205522;28;20023;-71
2023/08/08 08:54:45;;;;;;;;;;;;;;;16.12;67.36;100466.25;4205484;28;20455;-70
2023/08/08 08:56:47;;;;;;;;;;;;;;;16.14;67.40;100484.00;4205054;28;20343;-71
2023/08/08 08:58:49;;;;;;;;;;;;;;;16.16;67.24;100487.38;4205718;28;20011;-71
2023/08/08 09:00:51;;;;;;;;;;;;;;;16.18;67.24;100476.25;4204779;28;20007;-71
2023/08/08 09:02:55;;;;;;;;;;;;;;;16.19;67.32;100467.88;4187085;28;19956;-71
2023/08/08 09:04:57;;;;;;;;;;;;;;;16.21;66.92;100476.63;4204322;28;20014;-71
2023/08/08 09:06:59;;;;;;;;;;;;;;;16.23;66.95;100497.41;4205062;28;19940;-71
2023/08/08 09:09:02;;;;;;;;;;;;;;;16.23;66.93;100476.41;4205492;28;20014;-70
2023/08/08 09:11:04;;;;;;;;;;;;;;;16.24;67.01;100477.25;4204440;28;20135;-71
2023/08/08 09:13:07;;;;;;;;;;;;;;;16.26;66.69;100480.59;4171100;28;20019;-71
2023/08/08 09:15:10;;;;;;;;;;;;;;;16.28;66.89;100489.38;4204644;28;20035;-70
2023/08/08 09:17:12;;;;;;;;;;;;;;;16.28;66.92;100473.84;4186448;28;20450;-72
2023/08/08 09:19:17;;;;;;;;;;;;;;;16.31;66.95;100476.16;4186911;28;20019;-71
2023/08/08 09:21:18;;;;;;;;;;;;;;;16.33;66.75;100474.06;4204733;28;20015;-71
2023/08/08 09:23:23;;;;;;;;;;;;;;;16.35;66.63;100480.09;4204932;28;20317;-71
2023/08/08 09:25:25;;;;;;;;;;;;;;;16.37;66.33;100474.44;4205051;28;20031;-70
2023/08/08 09:27:29;;;;;;;;;;;;;;;16.39;66.37;100462.25;4204593;28;20466;-70
2023/08/08 09:29:31;;;;;;;;;;;;;;;16.43;66.14;100454.47;4203700;28;20043;-72
2023/08/08 09:31:35;;;;;;;;;;;;;;;16.47;66.22;100458.41;4205014;28;20027;-70
2023/08/08 09:33:39;;;;;;;;;;;;;;;16.51;65.79;100454.19;4205066;28;20365;-70
2023/08/08 09:35:42;;;;;;;;;;;;;;;16.54;65.71;100472.00;4204479;28;20015;-69
2023/08/08 09:37:44;;;;;;;;;;;;;;;16.58;65.79;100452.25;4204730;28;20035;-70
2023/08/08 09:39:46;;;;;;;;;;;;;;;16.61;65.61;100455.56;4204379;28;20015;-70
2023/08/08 09:41:47;;;;;;;;;;;;;;;16.63;65.39;100458.91;4205199;28;20011;-69
2023/08/08 09:43:49;;;;;;;;;;;;;;;16.63;65.23;100443.38;4204490;28;20402;-69
2023/08/08 09:45:52;;;;;;;;;;;;;;;16.66;65.38;100442.09;4204796;28;20366;-69
2023/08/08 09:47:54;;;;;;;;;;;;;;;16.68;64.93;100454.44;4205490;28;20449;-69
2023/08/08 09:49:57;;;;;;;;;;;;;;;16.71;64.98;100451.28;4204619;28;20016;-70
2023/08/08 09:52:00;;;;;;;;;;;;;;;16.74;64.64;100441.81;4204283;28;20021;-69
2023/08/08 09:54:02;;;;;;;;;;;;;;;16.75;64.50;100441.59;4205110;28;20516;-70
2023/08/08 09:56:05;;;;;;;;;;;;;;;16.80;64.40;100451.78;4170359;28;20025;-70
2023/08/08 09:58:08;;;;;;;;;;;;;;;16.81;64.31;100444.47;4204382;28;20014;-69
2023/08/08 10:00:11;;;;;;;;;;;;;;;16.82;64.38;100433.34;4202922;28;20007;-70
2023/08/08 10:02:15;;;;;;;;;;;;;;;16.84;64.51;100441.28;4204769;28;20020;-70
2023/08/08 10:04:17;;;;;;;;;;;;;;;16.86;64.49;100434.56;4204336;28;20450;-70
2023/08/08 10:06:19;;;;;;;;;;;;;;;16.87;64.34;100432.69;4203931;28;20015;-70
2023/08/08 10:08:23;;;;;;;;;;;;;;;16.87;64.31;100430.78;4204098;28;19932;-69
2023/08/08 10:10:25;;;;;;;;;;;;;;;16.89;64.14;100417.75;4204225;28;20024;-70
2023/08/08 10:12:27;;;;;;;;;;;;;;;16.89;64.03;100430.56;4204189;28;20015;-69
2023/08/08 10:14:30;;;;;;;;;;;;;;;16.89;63.97;100442.28;4204303;28;20376;-69
2023/08/08 10:16:32;;;;;;;;;;;;;;;16.89;63.82;100436.84;4204535;28;20019;-70
2023/08/08 10:18:34;;;;;;;;;;;;;;;16.89;63.83;100433.28;4204358;28;20011;-70
2023/08/08 10:20:37;;;;;;;;;;;;;;;16.85;63.93;100435.63;4204138;28;20028;-70
2023/08/08 10:22:39;;;;;;;;;;;;;;;16.85;63.89;100437.50;4204132;28;20023;-71
2023/08/08 10:24:43;;;;;;;;;;;;;;;16.84;64.17;100436.66;4203771;28;20022;-71
2023/08/08 10:26:54;;;;;;;;;;;;;;;16.84;64.24;100431.22;4203440;28;20368;-70
2023/08/08 10:28:57;;;;;;;;;;;;;;;16.86;64.14;100425.56;4204394;28;20371;-70